Time;durP1;ratioP1;P1;durP2;ratioP2;P2;SDS_P1;SDS_P2;PMS_P1;PMS_P2;Temp;Humidity;BMP_temperature;BMP_pressure;BME280_temperature;BME280_humidity;BME280_pressure;Samples;Min_cycle;Max_cycle;Signal;HPM_P1;HPM_P2
2021/11/13 00:00:29;;;;;;;1124.30;999.90;;;;;;;21.22;53.71;101977.91;5058329;28;20013;-39
2021/11/13 00:02:56;;;;;;;1108.72;999.90;;;;;;;21.23;53.85;101974.28;5058934;28;20041;-39
2021/11/13 00:05:22;;;;;;;1113.35;999.90;;;;;;;21.26;53.95;101978.50;5066315;28;20032;-39
2021/11/13 00:07:48;;;;;;;1096.10;999.90;;;;;;;21.13;54.01;101960.00;5048430;28;20025;-39
2021/11/13 00:10:15;;;;;;;1101.88;999.90;;;;;;;21.21;53.92;101972.72;5047366;28;20087;-39
2021/11/13 00:12:42;;;;;;;1120.82;999.90;;;;;;;21.20;54.11;101977.22;5044147;28;20455;-39
2021/11/13 00:15:09;;;;;;;1107.93;999.90;;;;;;;21.20;53.92;101973.69;5059404;28;20042;-39
2021/11/13 00:17:35;;;;;;;1124.53;999.90;;;;;;;21.23;54.17;101968.94;5055977;28;20037;-39
2021/11/13 00:20:02;;;;;;;1120.10;999.90;;;;;;;21.12;54.28;101958.31;5053015;28;20033;-39
2021/11/13 00:22:28;;;;;;;1090.63;998.70;;;;;;;21.21;53.98;101968.22;5049820;28;20016;-39
2021/11/13 00:24:54;;;;;;;1121.90;999.90;;;;;;;21.21;54.22;101970.91;5041574;28;20026;-39
2021/11/13 00:27:20;;;;;;;1127.30;999.90;;;;;;;21.20;54.24;101976.38;5049805;28;20025;-39
2021/11/13 00:29:47;;;;;;;1108.13;999.90;;;;;;;21.18;53.88;101973.00;5052680;28;20082;-39
2021/11/13 00:32:13;;;;;;;1116.43;999.90;;;;;;;21.20;53.99;101985.22;5034884;28;20052;-39
2021/11/13 00:34:39;;;;;;;1100.13;999.90;;;;;;;21.21;54.22;101978.06;5051110;28;20462;-39
2021/11/13 00:37:05;;;;;;;1125.85;999.90;;;;;;;21.19;54.42;101985.34;5049837;28;20033;-39
2021/11/13 00:39:31;;;;;;;1106.63;999.90;;;;;;;21.16;54.57;101980.25;5052536;28;20040;-39
2021/11/13 00:41:58;;;;;;;1119.40;999.90;;;;;;;21.18;53.96;101981.84;5050463;28;20086;-39
2021/11/13 00:44:24;;;;;;;1132.28;999.90;;;;;;;21.21;54.38;101991.41;5053851;28;20021;-39
2021/11/13 00:46:50;;;;;;;1128.68;999.90;;;;;;;21.20;53.92;101993.25;5054324;28;20025;-39
2021/11/13 00:49:17;;;;;;;1102.13;999.90;;;;;;;21.18;54.45;101984.50;5053545;28;20025;-39
2021/11/13 00:51:45;;;;;;;1107.45;999.90;;;;;;;21.17;54.30;101988.16;5052625;28;20021;-39
2021/11/13 00:54:11;;;;;;;1119.63;999.90;;;;;;;21.17;54.11;101987.31;5050968;28;20080;-40
2021/11/13 00:56:38;;;;;;;1116.20;999.90;;;;;;;21.07;54.18;101977.41;5049293;28;20020;-39
2021/11/13 00:59:04;;;;;;;1114.45;999.90;;;;;;;21.15;54.36;101989.28;5068474;28;20021;-39
2021/11/13 01:01:31;;;;;;;1123.35;999.90;;;;;;;21.17;54.22;101985.47;5056004;28;20362;-39
2021/11/13 01:03:57;;;;;;;1122.45;999.90;;;;;;;21.16;54.44;101989.16;5052100;28;20390;-39
2021/11/13 01:06:24;;;;;;;1129.00;999.90;;;;;;;21.16;54.57;101990.94;5047635;28;20024;-39
2021/11/13 01:08:50;;;;;;;1133.20;999.90;;;;;;;21.15;54.59;101995.44;5069453;28;20446;-39
2021/11/13 01:11:17;;;;;;;1113.82;999.90;;;;;;;21.15;54.26;101998.13;5053050;28;20029;-39
2021/11/13 01:13:43;;;;;;;1092.57;999.00;;;;;;;21.16;54.20;101997.16;5055648;28;20056;-39
2021/11/13 01:16:10;;;;;;;1125.35;999.90;;;;;;;21.15;54.29;101995.44;5051922;28;20106;-39
2021/11/13 01:18:38;;;;;;;1115.55;999.90;;;;;;;21.14;54.59;102001.78;5051425;28;20033;-39
2021/11/13 01:21:05;;;;;;;1120.80;999.90;;;;;;;21.16;54.08;102001.63;5058151;28;20074;-39
2021/11/13 01:23:31;;;;;;;1143.60;999.90;;;;;;;21.12;54.23;102003.72;5055859;28;20033;-39
2021/11/13 01:25:57;;;;;;;1127.78;999.90;;;;;;;21.11;54.39;102010.06;5057265;28;20020;-39
2021/11/13 01:28:23;;;;;;;1116.90;999.90;;;;;;;21.12;54.16;102005.53;5055228;28;20029;-39
2021/11/13 01:30:50;;;;;;;1123.75;999.90;;;;;;;21.11;54.32;102009.22;5055738;28;20063;-39
2021/11/13 01:33:16;;;;;;;1110.30;999.90;;;;;;;21.09;54.13;102014.69;5060149;28;20366;-39
2021/11/13 01:35:43;;;;;;;1127.13;999.90;;;;;;;21.07;54.75;102019.31;5061128;28;20021;-39
2021/11/13 01:38:09;;;;;;;1121.18;999.90;;;;;;;21.10;54.50;102020.88;5057679;28;20395;-40
2021/11/13 01:40:35;;;;;;;1112.82;999.90;;;;;;;21.09;54.14;102017.34;5059212;28;20078;-39
2021/11/13 01:43:02;;;;;;;1118.82;999.90;;;;;;;21.12;54.50;102027.75;5061809;28;20031;-39
2021/11/13 01:45:28;;;;;;;1131.63;999.90;;;;;;;21.11;54.14;102028.75;5061673;28;20036;-39
2021/11/13 01:47:54;;;;;;;1107.63;999.90;;;;;;;21.08;53.97;102031.66;5058918;28;20036;-39
2021/11/13 01:50:25;;;;;;;1128.50;999.90;;;;;;;21.08;54.06;102031.66;5058320;28;20029;-39
2021/11/13 01:52:51;;;;;;;1106.30;999.90;;;;;;;21.06;54.12;102030.97;5070752;28;20020;-39
2021/11/13 01:55:19;;;;;;;1104.47;999.90;;;;;;;21.04;54.22;102030.25;5056736;28;20017;-38
2021/11/13 01:57:48;;;;;;;1111.72;999.90;;;;;;;21.03;54.12;102037.41;5051287;28;20033;-39
2021/11/13 02:00:26;;;;;;;1103.35;999.90;;;;;;;21.04;54.04;102030.25;5061506;28;20108;-39
2021/11/13 02:02:53;;;;;;;1109.68;999.90;;;;;;;21.02;54.18;102024.19;5055418;28;20063;-39
2021/11/13 02:05:19;;;;;;;1128.07;999.90;;;;;;;21.02;54.29;102033.03;5059329;28;20025;-39
2021/11/13 02:07:45;;;;;;;1135.68;999.90;;;;;;;20.85;54.30;101997.06;5055988;28;20446;-39
2021/11/13 02:10:12;;;;;;;1103.97;999.90;;;;;;;21.04;53.88;102023.06;5059271;28;20048;-39
2021/11/13 02:12:38;;;;;;;1109.22;999.90;;;;;;;21.03;54.39;102036.53;5060072;28;20039;-39
2021/11/13 02:15:04;;;;;;;1111.75;999.90;;;;;;;21.00;53.96;102034.13;5050742;28;20362;-39
2021/11/13 02:17:31;;;;;;;1115.55;999.90;;;;;;;20.98;54.03;102034.28;5058903;28;20033;-39
2021/11/13 02:19:57;;;;;;;1106.25;999.90;;;;;;;21.00;54.32;102036.78;5060677;28;20031;-39
2021/11/13 02:22:24;;;;;;;1108.32;999.90;;;;;;;20.90;54.13;102023.38;5059355;28;20087;-39
2021/11/13 02:24:50;;;;;;;1137.20;999.90;;;;;;;21.00;54.25;102040.34;5059207;28;20029;-39
2021/11/13 02:27:16;;;;;;;1093.53;999.53;;;;;;;20.97;54.32;102045.91;5053253;28;20087;-39
2021/11/13 02:29:42;;;;;;;1107.47;999.90;;;;;;;20.98;53.97;102044.97;5054941;28;20040;-38
2021/11/13 02:32:08;;;;;;;1117.78;999.90;;;;;;;20.97;54.14;102048.59;5057786;28;20516;-39
2021/11/13 02:34:35;;;;;;;1107.18;999.90;;;;;;;20.96;54.09;102046.88;5055939;28;20025;-39
2021/11/13 02:37:01;;;;;;;1116.28;999.90;;;;;;;20.97;53.97;102055.78;5058616;28;20024;-39
2021/11/13 02:39:27;;;;;;;1115.13;999.90;;;;;;;20.94;53.97;102056.84;5047478;28;20108;-39
2021/11/13 02:41:54;;;;;;;1125.28;999.90;;;;;;;20.94;54.38;102048.84;5047342;28;20395;-39
2021/11/13 02:44:20;;;;;;;1116.22;999.90;;;;;;;20.93;54.35;102043.63;5037170;28;20028;-39
2021/11/13 02:46:46;;;;;;;1120.82;999.90;;;;;;;20.93;54.03;102051.63;5042962;28;20358;-39
2021/11/13 02:49:14;;;;;;;1124.07;999.90;;;;;;;20.94;54.40;102045.34;5053919;28;20048;-38
2021/11/13 02:51:40;;;;;;;1126.15;999.90;;;;;;;20.91;54.25;102041.09;5056350;28;20052;-39
2021/11/13 02:54:06;;;;;;;1108.03;999.90;;;;;;;20.90;54.32;102044.75;5054145;28;20032;-39
2021/11/13 02:56:33;;;;;;;1118.80;999.90;;;;;;;20.93;54.36;102048.97;5054760;28;20044;-39
2021/11/13 02:58:59;;;;;;;1089.80;998.30;;;;;;;20.94;54.39;102054.19;5055998;28;20083;-39
2021/11/13 03:01:25;;;;;;;1106.18;999.90;;;;;;;20.97;54.11;102050.44;5056660;28;20025;-39
2021/11/13 03:03:53;;;;;;;1104.72;999.90;;;;;;;20.94;54.23;102053.34;5056780;28;20043;-39
2021/11/13 03:06:19;;;;;;;1103.15;999.90;;;;;;;20.95;53.94;102055.06;5056633;28;20021;-39
2021/11/13 03:08:46;;;;;;;1123.70;999.90;;;;;;;20.93;54.22;102048.97;5056755;28;20021;-39
2021/11/13 03:11:13;;;;;;;1118.50;999.90;;;;;;;20.92;54.34;102047.28;5056579;28;20082;-39
2021/11/13 03:13:41;;;;;;;1109.03;999.90;;;;;;;20.94;54.19;102050.66;5054503;28;20524;-39
2021/11/13 03:16:07;;;;;;;1096.85;999.03;;;;;;;20.94;53.99;102048.84;5054627;28;20033;-39
2021/11/13 03:18:34;;;;;;;1097.43;999.90;;;;;;;20.95;54.03;102047.03;5061991;28;20098;-39
2021/11/13 03:21:05;;;;;;;1105.90;999.90;;;;;;;20.92;54.42;102045.47;5053413;28;20060;-39
2021/11/13 03:23:41;;;;;;;1091.28;999.10;;;;;;;20.93;54.20;102052.50;5054394;28;20036;-39
2021/11/13 03:26:16;;;;;;;1098.85;999.90;;;;;;;20.87;54.40;102053.00;5055989;28;20037;-39
2021/11/13 03:28:47;;;;;;;1100.78;999.90;;;;;;;20.85;54.30;102053.13;5036532;28;20483;-39
2021/11/13 03:31:13;;;;;;;1091.82;999.42;;;;;;;20.88;54.05;102058.22;5076768;28;20036;-39
2021/11/13 03:33:42;;;;;;;1094.57;999.55;;;;;;;20.86;54.12;102052.16;5055571;28;20017;-39
2021/11/13 03:36:08;;;;;;;1114.95;999.90;;;;;;;20.87;54.09;102055.66;5054747;28;20017;-39
2021/11/13 03:38:37;;;;;;;1104.43;999.90;;;;;;;20.85;54.23;102061.13;5055146;28;20079;-39
2021/11/13 03:41:03;;;;;;;1112.18;999.90;;;;;;;20.87;54.40;102061.88;5053001;28;20032;-39
2021/11/13 03:43:30;;;;;;;1110.95;999.90;;;;;;;20.87;54.03;102056.53;5056204;28;20407;-39
2021/11/13 03:45:56;;;;;;;1100.85;999.90;;;;;;;20.84;54.37;102054.13;5055080;28;20029;-39
2021/11/13 03:48:22;;;;;;;1123.32;999.90;;;;;;;20.85;53.91;102058.47;5055178;28;20556;-40
2021/11/13 03:50:48;;;;;;;1093.45;999.90;;;;;;;20.85;54.10;102057.63;5055476;28;20032;-39
2021/11/13 03:53:14;;;;;;;1112.13;999.90;;;;;;;20.84;54.34;102062.13;5055552;28;20332;-39
2021/11/13 03:55:41;;;;;;;1089.00;998.63;;;;;;;20.83;54.36;102062.25;5055956;28;20024;-39
2021/11/13 03:58:07;;;;;;;1094.38;999.88;;;;;;;20.81;54.35;102059.69;5055352;28;20017;-39
2021/11/13 04:00:33;;;;;;;1111.90;999.90;;;;;;;20.82;54.12;102057.88;5054946;28;20067;-39
2021/11/13 04:02:59;;;;;;;1116.38;999.90;;;;;;;20.81;54.41;102053.50;5053371;28;20017;-39
2021/11/13 04:05:26;;;;;;;1093.60;998.45;;;;;;;20.72;54.00;102031.09;5055586;28;20166;-39
2021/11/13 04:07:52;;;;;;;1101.65;999.70;;;;;;;20.81;54.05;102046.34;5038211;28;20063;-39
2021/11/13 04:10:18;;;;;;;1110.82;999.90;;;;;;;20.81;54.24;102056.19;5055679;28;20506;-39
2021/11/13 04:12:45;;;;;;;1130.15;999.90;;;;;;;20.75;53.92;102051.34;5055111;28;20355;-39
2021/11/13 04:15:11;;;;;;;1080.22;993.25;;;;;;;20.79;53.93;102058.13;5052419;28;20366;-39
2021/11/13 04:17:37;;;;;;;1082.72;993.70;;;;;;;20.78;54.03;102067.09;5054348;28;20029;-39
2021/11/13 04:20:05;;;;;;;1087.55;996.35;;;;;;;20.76;53.94;102064.56;5055770;28;20036;-39
2021/11/13 04:22:31;;;;;;;1100.50;999.90;;;;;;;20.78;53.75;102067.09;5055327;28;20039;-39
2021/11/13 04:24:57;;;;;;;1100.30;999.90;;;;;;;20.76;53.89;102067.22;5055170;28;20025;-39
2021/11/13 04:27:24;;;;;;;1100.35;999.60;;;;;;;20.74;53.70;102071.00;5055132;28;20026;-39
2021/11/13 04:29:50;;;;;;;1092.53;997.60;;;;;;;20.75;54.00;102076.22;5055311;28;20390;-40
2021/11/13 04:32:16;;;;;;;1086.65;996.40;;;;;;;20.74;54.11;102073.69;5053164;28;20032;-40
2021/11/13 04:37:17;;;;;;;1109.32;999.90;;;;;;;20.75;53.99;102078.91;5038974;28;20037;-40
2021/11/13 04:39:43;;;;;;;1092.80;998.13;;;;;;;20.72;54.04;102075.63;5052459;28;20029;-40
2021/11/13 04:42:09;;;;;;;1106.43;999.90;;;;;;;20.72;54.16;102076.47;5052172;28;20039;-40
2021/11/13 04:44:36;;;;;;;1083.47;994.78;;;;;;;20.70;54.17;102075.75;5053548;28;20028;-40
2021/11/13 04:47:02;;;;;;;1096.15;998.97;;;;;;;20.68;53.67;102069.69;5052588;28;20024;-40
2021/11/13 04:49:28;;;;;;;1095.03;998.58;;;;;;;20.66;53.62;102066.28;5045703;28;20112;-40
2021/11/13 04:51:55;;;;;;;1083.47;997.15;;;;;;;20.66;53.83;102074.28;5053111;28;20017;-40
2021/11/13 04:54:21;;;;;;;1091.72;998.67;;;;;;;20.66;53.79;102064.47;5049308;28;20029;-40
2021/11/13 04:56:47;;;;;;;1109.97;999.90;;;;;;;20.68;53.95;102075.88;5035078;28;20022;-40
2021/11/13 04:59:13;;;;;;;1105.95;999.90;;;;;;;20.64;53.94;102069.09;5042894;28;20093;-40
2021/11/13 05:01:39;;;;;;;1076.93;993.08;;;;;;;20.68;53.72;102077.72;5053428;28;20043;-40
2021/11/13 05:04:05;;;;;;;1091.60;998.35;;;;;;;20.66;53.92;102068.94;5052821;28;20134;-40
2021/11/13 05:06:32;;;;;;;1094.65;998.08;;;;;;;20.66;54.20;102071.63;5054505;28;20643;-40
2021/11/13 05:08:58;;;;;;;1087.68;997.72;;;;;;;20.64;53.66;102068.22;5050125;28;20097;-41
2021/11/13 05:11:24;;;;;;;1113.70;999.90;;;;;;;20.63;53.77;102075.41;5053596;28;20032;-40
2021/11/13 05:13:51;;;;;;;1071.45;987.42;;;;;;;20.61;54.19;102079.16;5049257;28;20127;-40
2021/11/13 05:16:17;;;;;;;1088.97;998.30;;;;;;;20.59;53.74;102073.06;5056164;28;20151;-40
2021/11/13 05:18:43;;;;;;;1102.57;999.90;;;;;;;20.60;54.18;102080.09;5052753;28;20031;-40
2021/11/13 05:21:09;;;;;;;1079.20;995.08;;;;;;;20.62;53.59;102067.50;5053177;28;20056;-41
2021/11/13 05:23:36;;;;;;;1073.13;988.30;;;;;;;20.61;53.75;102079.16;5053154;28;20028;-40
2021/11/13 05:26:02;;;;;;;1091.38;998.35;;;;;;;20.59;53.62;102076.59;5053677;28;20029;-40
2021/11/13 05:28:29;;;;;;;1091.55;999.90;;;;;;;20.60;53.59;102080.94;5057525;28;20031;-40
2021/11/13 05:30:56;;;;;;;1111.45;999.90;;;;;;;20.60;53.86;102069.44;5052334;28;20086;-40
2021/11/13 05:33:23;;;;;;;1072.25;990.15;;;;;;;20.57;53.88;102069.66;5053689;28;20033;-39
2021/11/13 05:35:50;;;;;;;1085.05;997.08;;;;;;;20.54;54.08;102070.78;5052636;28;20036;-40
2021/11/13 05:38:17;;;;;;;1084.28;997.00;;;;;;;20.44;53.83;102060.00;5059636;28;20350;-40
2021/11/13 05:40:43;;;;;;;1091.05;999.90;;;;;;;20.54;53.63;102064.56;5051228;28;20028;-40
2021/11/13 05:43:09;;;;;;;1087.72;998.28;;;;;;;20.48;53.56;102056.13;5052149;28;20046;-40
2021/11/13 05:45:36;;;;;;;1062.97;982.28;;;;;;;20.54;53.41;102051.22;5039528;28;20032;-40
2021/11/13 05:48:02;;;;;;;1074.88;992.53;;;;;;;20.51;53.46;102053.19;5050965;28;20033;-40
2021/11/13 05:50:28;;;;;;;1059.22;977.75;;;;;;;20.40;53.64;102039.03;5057649;28;20064;-37
2021/11/13 05:52:55;;;;;;;1092.80;999.75;;;;;;;20.50;53.40;102064.84;5052588;28;20518;-38
2021/11/13 05:55:24;;;;;;;1077.20;992.92;;;;;;;20.52;53.42;102062.06;5048601;28;20114;-37
2021/11/13 05:57:53;;;;;;;1094.55;999.10;;;;;;;20.48;53.79;102065.91;5042538;28;20053;-37
2021/11/13 06:00:21;;;;;;;1069.10;986.28;;;;;;;20.44;53.36;102061.81;5051668;28;20033;-37
2021/11/13 06:02:47;;;;;;;1060.60;979.17;;;;;;;20.37;53.86;102061.47;5061390;28;20033;-37
2021/11/13 06:05:14;;;;;;;1089.53;998.20;;;;;;;20.41;53.64;102070.94;5052752;28;20036;-37
2021/11/13 06:07:40;;;;;;;1057.28;977.08;;;;;;;20.40;53.51;102066.56;5053581;28;20085;-37
2021/11/13 06:10:07;;;;;;;1069.35;986.85;;;;;;;20.40;53.52;102061.22;5052476;28;20036;-37
2021/11/13 06:12:33;;;;;;;1070.75;988.85;;;;;;;20.39;53.41;102059.50;5042947;28;20024;-37
2021/11/13 06:14:59;;;;;;;1075.47;993.20;;;;;;;20.40;53.53;102069.22;5058363;28;20020;-37
2021/11/13 06:17:27;;;;;;;1076.50;994.25;;;;;;;20.41;53.57;102064.72;5070604;28;20029;-37
2021/11/13 06:19:54;;;;;;;1087.05;998.17;;;;;;;20.40;53.52;102063.88;5054840;28;20028;-37
2021/11/13 06:22:20;;;;;;;1080.65;994.20;;;;;;;20.37;53.85;102056.13;5054862;28;20112;-37
2021/11/13 06:24:47;;;;;;;1080.43;996.63;;;;;;;20.36;53.69;102059.78;5053373;28;20033;-37
2021/11/13 06:27:15;;;;;;;1051.93;972.28;;;;;;;20.33;53.81;102049.34;5052135;28;20028;-37
2021/11/13 06:29:42;;;;;;;1068.18;987.35;;;;;;;20.21;53.66;102037.81;5042966;28;20352;-37
2021/11/13 06:32:09;;;;;;;1038.30;962.05;;;;;;;20.30;53.50;102050.41;5039522;28;20039;-37
2021/11/13 06:34:35;;;;;;;1061.00;980.65;;;;;;;20.28;53.46;102046.19;5056887;28;20439;-37
2021/11/13 06:37:02;;;;;;;1067.57;987.13;;;;;;;20.29;53.83;102042.56;5046718;28;20235;-37
2021/11/13 06:39:28;;;;;;;1071.55;989.78;;;;;;;20.24;53.86;102032.25;5055021;28;20028;-37
2021/11/13 06:41:54;;;;;;;1065.45;985.80;;;;;;;20.32;53.41;102042.31;5051625;28;20031;-40
2021/11/13 06:44:20;;;;;;;1067.53;986.28;;;;;;;20.32;53.36;102042.31;5053111;28;20033;-40
2021/11/13 06:46:47;;;;;;;1057.75;978.45;;;;;;;20.28;53.45;102039.03;5037153;28;20029;-40
2021/11/13 06:49:13;;;;;;;1051.50;973.13;;;;;;;20.27;53.51;102033.81;5042573;28;20129;-40
2021/11/13 06:51:41;;;;;;;1052.97;972.47;;;;;;;20.26;53.87;102042.81;5053372;28;20021;-40
2021/11/13 06:54:07;;;;;;;1065.03;985.10;;;;;;;20.22;53.44;102033.38;5054584;28;20162;-40
2021/11/13 06:56:33;;;;;;;1056.82;978.22;;;;;;;20.22;53.56;102039.53;5054354;28;20036;-40
2021/11/13 06:58:59;;;;;;;1058.78;980.22;;;;;;;20.19;53.71;102039.78;5052858;28;20020;-40
2021/11/13 07:01:26;;;;;;;1085.93;999.38;;;;;;;20.21;53.87;102042.31;5052449;28;20056;-40
2021/11/13 07:03:52;;;;;;;1075.00;993.45;;;;;;;20.21;53.36;102050.31;5046235;28;20021;-40
2021/11/13 07:06:18;;;;;;;1069.55;989.72;;;;;;;20.21;53.73;102045.00;5056016;28;20040;-40
2021/11/13 07:08:44;;;;;;;1064.65;984.22;;;;;;;20.20;53.70;102046.81;5051803;28;20407;-40
2021/11/13 07:11:10;;;;;;;1067.10;986.47;;;;;;;20.18;53.69;102047.91;5046712;28;20082;-40
2021/11/13 07:13:36;;;;;;;1053.57;975.00;;;;;;;20.18;53.44;102045.22;5051920;28;20028;-40
2021/11/13 07:16:03;;;;;;;1042.50;963.47;;;;;;;20.17;53.72;102040.88;5054954;28;20017;-40
2021/11/13 07:18:29;;;;;;;1078.35;995.25;;;;;;;20.13;53.45;102034.94;5048457;28;20052;-40
2021/11/13 07:20:57;;;;;;;1044.80;966.80;;;;;;;20.14;53.57;102039.28;5055258;28;20450;-40
2021/11/13 07:23:23;;;;;;;1067.55;986.88;;;;;;;20.12;53.66;102036.75;5048664;28;20040;-40
2021/11/13 07:25:50;;;;;;;1075.18;993.75;;;;;;;20.11;53.45;102040.41;5054049;28;20429;-40
2021/11/13 07:28:19;;;;;;;1074.63;992.28;;;;;;;20.12;53.66;102039.41;5057081;28;20535;-40
2021/11/13 07:30:47;;;;;;;1043.80;966.80;;;;;;;20.11;53.57;102032.41;5044575;28;20096;-40
2021/11/13 07:33:13;;;;;;;1084.25;998.80;;;;;;;20.10;53.45;102020.00;5054423;28;20032;-40
2021/11/13 07:35:41;;;;;;;1065.00;985.78;;;;;;;20.09;53.73;102018.34;5054083;28;20037;-40
2021/11/13 07:38:08;;;;;;;1077.72;995.13;;;;;;;20.02;53.73;102006.47;5055356;28;20031;-40
2021/11/13 07:40:34;;;;;;;1069.30;988.67;;;;;;;20.08;53.42;102005.97;5052395;28;20029;-40
2021/11/13 07:43:00;;;;;;;1078.82;994.50;;;;;;;20.06;53.69;102001.75;5043008;28;20029;-39
2021/11/13 07:45:29;;;;;;;1066.30;987.00;;;;;;;20.02;53.48;101997.59;5054269;28;20025;-40
2021/11/13 07:47:56;;;;;;;1086.13;999.00;;;;;;;20.04;53.51;101982.31;5039872;28;20159;-40
2021/11/13 07:50:22;;;;;;;1069.43;988.05;;;;;;;20.01;53.72;101988.75;5041309;28;20017;-40
2021/11/13 07:52:48;;;;;;;1051.22;973.25;;;;;;;20.01;53.52;101994.09;5056945;28;20087;-40
2021/11/13 07:55:15;;;;;;;1050.13;972.72;;;;;;;20.03;53.25;101999.31;5055624;28;20067;-40
2021/11/13 07:57:41;;;;;;;1064.18;985.13;;;;;;;20.03;53.43;102004.63;5054511;28;20068;-40
2021/11/13 08:00:09;;;;;;;1053.80;975.97;;;;;;;20.02;53.43;101994.94;5054597;28;20060;-40
2021/11/13 08:02:35;;;;;;;1065.22;985.97;;;;;;;20.00;53.52;101997.72;5042855;28;20033;-40
2021/11/13 08:05:01;;;;;;;1056.13;977.33;;;;;;;19.95;53.29;102005.25;5047634;28;20367;-40
2021/11/13 08:07:28;;;;;;;1065.40;987.33;;;;;;;19.96;53.23;102014.09;5054973;28;20025;-40
2021/11/13 08:09:54;;;;;;;1064.15;984.97;;;;;;;19.94;53.65;102020.38;5052408;28;20035;-40
2021/11/13 08:12:20;;;;;;;1054.88;976.80;;;;;;;19.91;53.33;102025.13;5047216;28;20052;-40
2021/11/13 08:14:46;;;;;;;1071.93;992.05;;;;;;;19.92;53.43;102029.50;5054143;28;20043;-39
2021/11/13 08:17:12;;;;;;;1038.63;961.83;;;;;;;19.90;53.37;102029.59;5053269;28;20098;-39
2021/11/13 08:19:39;;;;;;;1050.75;973.33;;;;;;;19.85;53.08;102030.94;5053518;28;20021;-40
2021/11/13 08:22:05;;;;;;;1040.72;962.72;;;;;;;19.89;53.11;102035.91;5054511;28;20029;-40
2021/11/13 08:24:31;;;;;;;1063.80;984.55;;;;;;;19.91;53.30;102038.44;5050312;28;20380;-40
2021/11/13 08:26:57;;;;;;;1063.57;984.67;;;;;;;19.90;53.08;102023.44;5059695;28;20443;-40
2021/11/13 08:29:24;;;;;;;1045.22;969.22;;;;;;;19.90;53.05;102026.94;5054289;28;20036;-40
2021/11/13 08:31:50;;;;;;;1028.20;952.92;;;;;;;19.86;53.59;102036.16;5056399;28;20028;-40
2021/11/13 08:34:16;;;;;;;1059.88;981.67;;;;;;;19.85;53.16;102029.13;5043759;28;20451;-40
2021/11/13 08:36:42;;;;;;;1020.33;946.38;;;;;;;19.85;53.31;102025.63;5034342;28;20029;-40
2021/11/13 08:39:09;;;;;;;1059.22;980.60;;;;;;;19.84;53.23;102029.22;5042823;28;20037;-40
2021/11/13 08:41:35;;;;;;;1032.05;956.05;;;;;;;19.83;53.07;102022.22;5047689;28;20111;-39
2021/11/13 08:44:02;;;;;;;1041.65;964.40;;;;;;;19.77;53.73;102017.34;5045472;28;20405;-40
2021/11/13 08:46:29;;;;;;;1072.57;992.20;;;;;;;19.77;53.56;102010.19;5051414;28;20363;-41
2021/11/13 08:48:55;;;;;;;1049.85;973.30;;;;;;;19.77;53.28;102007.53;5050842;28;20028;-40
2021/11/13 08:51:22;;;;;;;1053.63;975.72;;;;;;;19.79;53.21;102005.63;5054024;28;20037;-38
2021/11/13 08:53:54;;;;;;;1048.10;971.88;;;;;;;19.71;53.22;102006.16;5051219;28;20018;-38
2021/11/13 08:56:22;;;;;;;1033.25;958.88;;;;;;;19.77;53.47;102012.03;5068445;28;20028;-38
2021/11/13 08:58:49;;;;;;;1019.33;945.53;;;;;;;19.76;53.21;102016.53;5054552;28;20071;-38
2021/11/13 09:01:15;;;;;;;1054.32;976.65;;;;;;;19.74;53.04;102024.63;5049086;28;20036;-37
2021/11/13 09:03:42;;;;;;;1059.78;981.92;;;;;;;19.73;53.30;102022.91;5053412;28;20017;-38
2021/11/13 09:06:15;;;;;;;1052.38;973.22;;;;;;;19.70;53.09;102023.16;5052227;28;20044;-38
2021/11/13 09:08:43;;;;;;;1035.38;960.30;;;;;;;19.69;53.12;102026.78;5053333;28;20035;-38
2021/11/13 09:11:10;;;;;;;1034.30;959.45;;;;;;;19.69;53.14;102039.25;5051398;28;20032;-37
2021/11/13 09:13:36;;;;;;;1046.90;971.17;;;;;;;19.69;53.12;102032.09;5052363;28;20026;-37
2021/11/13 09:16:03;;;;;;;1028.50;953.30;;;;;;;19.67;52.82;102028.72;5054593;28;20455;-38
2021/11/13 09:18:29;;;;;;;1046.50;970.67;;;;;;;19.67;53.07;102026.03;5049524;28;20025;-38
2021/11/13 09:20:56;;;;;;;1044.85;968.83;;;;;;;19.71;53.26;102026.66;5037827;28;20361;-37
2021/11/13 09:23:22;;;;;;;1041.32;965.35;;;;;;;19.71;53.25;102022.16;5045025;28;20358;-37
2021/11/13 09:25:48;;;;;;;1033.50;959.88;;;;;;;19.69;52.78;102024.09;5040308;28;20024;-37
2021/11/13 09:28:14;;;;;;;1051.65;975.95;;;;;;;19.66;53.12;102021.69;5033962;28;20051;-38
2021/11/13 09:30:41;;;;;;;1029.85;955.15;;;;;;;19.64;53.29;102022.78;5052148;28;20024;-37
2021/11/13 09:33:07;;;;;;;1046.35;969.42;;;;;;;19.64;53.10;102031.59;5054026;28;20021;-37
2021/11/13 09:35:34;;;;;;;1053.10;977.22;;;;;;;19.61;53.25;102036.31;5043509;28;20112;-37
2021/11/13 09:38:00;;;;;;;1059.60;982.28;;;;;;;19.60;53.10;102032.81;5034267;28;20017;-38
2021/11/13 09:40:28;;;;;;;1065.85;986.83;;;;;;;19.57;53.32;102030.38;5042058;28;20029;-37
2021/11/13 09:42:55;;;;;;;1031.75;957.50;;;;;;;19.57;53.19;102025.06;5042398;28;20104;-37
2021/11/13 09:45:22;;;;;;;1048.88;973.67;;;;;;;19.58;53.14;102034.75;5049158;28;20036;-37
2021/11/13 09:47:50;;;;;;;1040.95;967.03;;;;;;;19.58;53.17;102034.75;5051021;28;20033;-38
2021/11/13 09:50:16;;;;;;;1048.60;972.10;;;;;;;19.62;53.03;102030.88;5047545;28;20029;-37
2021/11/13 09:52:43;;;;;;;1045.57;969.38;;;;;;;19.57;52.77;102039.22;5055502;28;20035;-37
2021/11/13 09:55:10;;;;;;;1059.90;981.90;;;;;;;19.57;52.98;102049.03;5053368;28;20013;-38
2021/11/13 09:57:37;;;;;;;1031.32;956.88;;;;;;;19.54;52.91;102054.59;5057320;28;20047;-37
2021/11/13 10:00:07;;;;;;;1055.60;978.33;;;;;;;19.51;53.05;102061.03;5048133;28;20518;-38
2021/11/13 10:02:33;;;;;;;1064.03;985.92;;;;;;;19.51;53.18;102055.69;5055137;28;20048;-37
2021/11/13 10:04:59;;;;;;;1059.68;982.38;;;;;;;19.46;53.01;102052.53;5065842;28;20667;-37
2021/11/13 10:07:25;;;;;;;1049.75;974.20;;;;;;;19.51;52.79;102049.53;5057839;28;20033;-38
2021/11/13 10:09:52;;;;;;;1038.93;965.78;;;;;;;19.46;52.88;102043.69;5043855;28;20040;-38
2021/11/13 10:12:18;;;;;;;1020.92;947.20;;;;;;;19.30;52.77;102017.38;5042800;28;20028;-37
2021/11/13 10:14:44;;;;;;;1035.88;961.72;;;;;;;19.50;52.97;102038.00;5040187;28;20036;-37
2021/11/13 10:17:21;;;;;;;1041.10;965.15;;;;;;;19.51;53.22;102037.03;5049136;28;20122;-37
2021/11/13 10:19:48;;;;;;;1038.85;964.22;;;;;;;19.48;52.86;102020.44;5053512;28;20021;-38
2021/11/13 10:22:14;;;;;;;1030.20;955.53;;;;;;;19.39;53.14;102019.34;5052472;28;20033;-37
2021/11/13 10:24:48;;;;;;;1032.53;958.30;;;;;;;19.43;53.23;102027.94;5041817;28;20025;-38
2021/11/13 10:27:15;;;;;;;1040.43;965.92;;;;;;;19.42;53.26;102024.44;5055651;28;20370;-37
2021/11/13 10:29:43;;;;;;;1046.53;971.13;;;;;;;19.41;53.00;102028.06;5055636;28;20032;-37
2021/11/13 10:32:12;;;;;;;1037.28;963.35;;;;;;;19.38;53.24;102031.81;5043062;28;20048;-38
2021/11/13 10:34:41;;;;;;;1030.80;957.60;;;;;;;19.39;53.31;102030.00;5055473;28;20093;-37
2021/11/13 10:37:14;;;;;;;1031.80;958.67;;;;;;;19.39;53.38;102035.31;5052639;28;20033;-38
2021/11/13 10:39:42;;;;;;;1025.38;952.35;;;;;;;19.42;53.04;102031.56;5055536;28;20029;-37
2021/11/13 10:42:13;;;;;;;1024.13;952.17;;;;;;;18.98;52.75;101968.25;5041792;28;20033;-37
2021/11/13 10:44:40;;;;;;;1028.60;955.83;;;;;;;19.43;52.88;102035.94;5041737;28;20040;-37
2021/11/13 10:47:13;;;;;;;1014.58;942.70;;;;;;;19.38;52.80;102039.81;5044571;28;20024;-37